Time;durP1;ratioP1;P1;durP2;ratioP2;P2;SDS_P1;SDS_P2;PMS_P1;PMS_P2;Temp;Humidity;BMP_temperature;BMP_pressure;BME280_temperature;BME280_humidity;BME280_pressure;Samples;Min_cycle;Max_cycle;Signal;HPM_P1;HPM_P2
2024/01/06 00:01:24;;;;;;;12.85;6.70;;;;;;;7.12;75.80;95487.53;4993778;28;20136;-81
2024/01/06 00:03:52;;;;;;;8.30;5.85;;;;;;;7.09;76.41;95489.72;4994042;28;20050;-81
2024/01/06 00:06:20;;;;;;;9.00;5.50;;;;;;;7.08;76.31;95480.31;4994180;28;20046;-80
2024/01/06 00:08:53;;;;;;;9.30;5.78;;;;;;;7.07;75.06;95492.50;4993872;28;20053;-80
2024/01/06 00:11:22;;;;;;;7.93;5.40;;;;;;;7.07;77.31;95492.50;4994246;28;20320;-78
2024/01/06 00:13:50;;;;;;;6.15;5.03;;;;;;;7.10;77.75;95493.91;4994712;28;20057;-78
2024/01/06 00:16:18;;;;;;;13.38;5.32;;;;;;;7.09;76.36;95487.13;4994801;28;20052;-78
2024/01/06 00:18:46;;;;;;;8.13;5.38;;;;;;;7.10;77.31;95496.50;4994041;28;20139;-78
2024/01/06 00:21:14;;;;;;;6.00;4.97;;;;;;;7.12;78.13;95492.72;4994336;28;20053;-79
2024/01/06 00:23:42;;;;;;;8.82;4.35;;;;;;;7.14;77.21;95492.53;4993797;28;20046;-78
2024/01/06 00:26:10;;;;;;;7.63;4.22;;;;;;;7.12;75.89;95494.53;5003318;28;20074;-77
2024/01/06 00:28:40;;;;;;;7.75;4.60;;;;;;;7.11;75.47;95493.72;5016787;28;20035;-77
2024/01/06 00:31:08;;;;;;;8.32;4.85;;;;;;;7.12;76.19;95494.53;5011733;28;20050;-78
2024/01/06 00:33:36;;;;;;;9.13;4.90;;;;;;;7.06;75.27;95497.84;4994663;28;20043;-78
2024/01/06 00:36:04;;;;;;;7.05;4.60;;;;;;;7.03;75.95;95491.25;4994978;28;20057;-78
2024/01/06 00:38:32;;;;;;;6.97;4.38;;;;;;;7.05;76.95;95499.66;4994624;28;20121;-78
2024/01/06 00:40:59;;;;;;;9.32;4.55;;;;;;;7.06;76.88;95492.66;4993979;28;20140;-77
2024/01/06 00:43:27;;;;;;;6.32;4.88;;;;;;;7.06;77.19;95492.66;4993975;28;20082;-79
2024/01/06 00:45:56;;;;;;;6.13;4.25;;;;;;;7.08;76.85;95494.09;4993989;28;20073;-79
2024/01/06 00:48:23;;;;;;;7.82;4.95;;;;;;;7.07;75.73;95492.50;4994149;28;20065;-78
2024/01/06 00:50:51;;;;;;;7.25;4.90;;;;;;;7.06;76.33;95500.44;4994143;28;20050;-79
2024/01/06 00:53:20;;;;;;;8.68;5.75;;;;;;;7.07;77.96;95499.47;4993633;28;20046;-78
2024/01/06 00:55:48;;;;;;;12.85;6.10;;;;;;;7.06;77.09;95495.25;4993632;28;20117;-78
2024/01/06 00:58:15;;;;;;;8.88;5.60;;;;;;;7.05;78.60;95494.47;4993962;28;20046;-78
2024/01/06 01:00:43;;;;;;;10.68;6.90;;;;;;;7.05;77.35;95498.84;4993077;28;20145;-78
2024/01/06 01:03:12;;;;;;;13.23;6.28;;;;;;;6.97;75.36;95497.97;4993156;28;20076;-78
2024/01/06 01:05:39;;;;;;;11.43;6.22;;;;;;;6.92;75.41;95500.34;4993407;28;20058;-79
2024/01/06 01:08:07;;;;;;;9.60;6.05;;;;;;;6.89;76.01;95505.91;4993605;28;20120;-79
2024/01/06 01:10:35;;;;;;;14.07;7.35;;;;;;;6.86;75.07;95503.66;4993299;28;20056;-78
2024/01/06 01:13:02;;;;;;;11.38;7.00;;;;;;;6.80;74.56;95496.66;4992999;28;20125;-78
2024/01/06 01:15:30;;;;;;;13.05;6.82;;;;;;;6.76;74.11;95505.78;4993239;28;20080;-79
2024/01/06 01:17:57;;;;;;;10.18;5.88;;;;;;;6.73;75.12;95511.31;4993497;28;20057;-77
2024/01/06 01:20:26;;;;;;;13.05;6.45;;;;;;;6.73;74.83;95506.94;4993234;28;20046;-78
2024/01/06 01:22:54;;;;;;;18.88;9.43;;;;;;;6.74;74.33;95512.94;4992982;28;20141;-78
2024/01/06 01:25:21;;;;;;;15.40;8.07;;;;;;;6.71;73.81;95523.66;4993645;28;20080;-79
2024/01/06 01:27:49;;;;;;;10.68;7.38;;;;;;;6.67;73.79;95512.03;4993595;28;20153;-78
2024/01/06 01:30:17;;;;;;;10.73;5.90;;;;;;;6.69;74.98;95520.44;4993110;28;20498;-78
2024/01/06 01:32:44;;;;;;;9.93;6.25;;;;;;;6.71;74.33;95519.28;4992776;28;20586;-78
2024/01/06 01:35:12;;;;;;;9.32;5.00;;;;;;;6.67;73.78;95509.44;4992908;28;20577;-78
2024/01/06 01:37:41;;;;;;;6.65;5.00;;;;;;;6.66;74.93;95516.44;4995290;28;20050;-78
2024/01/06 01:40:09;;;;;;;11.90;5.07;;;;;;;6.67;74.48;95514.63;4993355;28;20133;-79
2024/01/06 01:42:37;;;;;;;8.35;4.45;;;;;;;6.65;73.58;95508.84;4992764;28;20458;-78
2024/01/06 01:45:06;;;;;;;8.18;4.63;;;;;;;6.64;73.44;95520.19;4994770;28;20054;-78
2024/01/06 01:47:33;;;;;;;9.43;4.30;;;;;;;6.64;73.52;95513.22;4996836;28;20106;-78
2024/01/06 01:50:02;;;;;;;9.85;4.90;;;;;;;6.64;73.31;95515.00;4996716;28;20054;-78
2024/01/06 01:52:30;;;;;;;8.15;3.88;;;;;;;6.63;73.03;95519.41;4996506;28;20054;-78
2024/01/06 01:55:00;;;;;;;5.97;3.72;;;;;;;6.60;73.66;95517.97;4996911;28;20149;-78
2024/01/06 01:57:28;;;;;;;5.90;3.95;;;;;;;6.62;74.80;95530.75;4996949;28;20142;-78
2024/01/06 01:59:56;;;;;;;7.03;3.50;;;;;;;6.65;74.97;95532.97;4996473;28;20077;-78
2024/01/06 02:02:24;;;;;;;7.47;4.10;;;;;;;6.68;75.00;95530.00;4997801;28;20502;-78
2024/01/06 02:04:52;;;;;;;4.95;3.83;;;;;;;6.69;75.69;95528.22;4996615;28;20050;-78
2024/01/06 02:07:19;;;;;;;6.35;4.25;;;;;;;6.71;77.05;95526.25;4996659;28;20048;-78
2024/01/06 02:09:47;;;;;;;5.97;3.05;;;;;;;6.76;76.80;95529.91;4996407;28;20086;-78
2024/01/06 02:12:16;;;;;;;5.93;3.42;;;;;;;6.81;77.75;95534.53;4996164;28;20474;-78
2024/01/06 02:14:44;;;;;;;5.43;2.80;;;;;;;6.86;77.32;95532.19;4996233;28;20046;-79
2024/01/06 02:17:11;;;;;;;3.65;3.00;;;;;;;6.89;77.83;95529.22;4996542;28;20075;-78
2024/01/06 02:19:39;;;;;;;3.63;2.55;;;;;;;6.90;77.87;95533.41;4996378;28;20115;-78
2024/01/06 02:22:08;;;;;;;6.38;3.22;;;;;;;6.93;77.13;95537.44;4996270;28;20057;-78
2024/01/06 02:24:35;;;;;;;3.08;2.60;;;;;;;6.94;78.00;95533.88;4996184;28;20133;-78
2024/01/06 02:27:04;;;;;;;6.57;3.25;;;;;;;6.94;77.96;95537.25;4996049;28;20051;-78
2024/01/06 02:29:31;;;;;;;5.50;2.88;;;;;;;6.94;78.24;95539.84;4996184;28;20157;-78
2024/01/06 02:31:59;;;;;;;3.28;2.65;;;;;;;6.96;78.94;95542.25;4995887;28;20074;-78
2024/01/06 02:34:27;;;;;;;4.50;2.83;;;;;;;6.94;78.15;95545.03;4997344;28;20056;-78
2024/01/06 02:36:54;;;;;;;8.13;3.35;;;;;;;6.96;78.69;95543.06;4997412;28;20049;-77
2024/01/06 02:39:23;;;;;;;4.30;2.83;;;;;;;6.94;78.93;95545.03;4996667;28;20069;-78
2024/01/06 02:41:51;;;;;;;4.90;3.03;;;;;;;6.93;78.42;95548.63;4995700;28;20419;-78
2024/01/06 02:44:18;;;;;;;5.63;2.97;;;;;;;6.95;79.07;95545.81;4996050;28;20062;-78
2024/01/06 02:46:46;;;;;;;6.55;4.05;;;;;;;6.98;79.52;95551.44;4996330;28;20137;-79
2024/01/06 02:49:13;;;;;;;6.55;4.22;;;;;;;6.99;78.33;95558.22;4995977;28;20138;-78
2024/01/06 02:51:41;;;;;;;7.57;3.45;;;;;;;6.96;77.58;95556.03;4995697;28;20054;-78
2024/01/06 02:54:09;;;;;;;5.90;3.28;;;;;;;6.93;78.02;95560.75;4996237;28;20043;-78
2024/01/06 02:56:38;;;;;;;8.02;3.85;;;;;;;6.92;78.83;95567.75;4995254;28;20054;-79
2024/01/06 02:59:06;;;;;;;5.65;3.53;;;;;;;6.92;79.29;95567.75;4995593;28;20061;-78
2024/01/06 03:01:34;;;;;;;6.47;4.57;;;;;;;6.93;79.29;95568.53;4995579;28;20477;-78
2024/01/06 03:04:01;;;;;;;5.40;4.22;;;;;;;6.92;79.51;95567.75;4995401;28;20065;-78
2024/01/06 03:06:29;;;;;;;6.20;4.45;;;;;;;6.87;78.90;95566.69;4995576;28;20050;-78
2024/01/06 03:08:57;;;;;;;6.82;4.22;;;;;;;6.84;77.88;95575.63;5000162;28;20042;-78
2024/01/06 03:11:24;;;;;;;9.27;3.90;;;;;;;6.83;77.96;95563.66;5018150;28;20049;-78
2024/01/06 03:13:53;;;;;;;7.20;3.90;;;;;;;6.83;77.65;95563.66;5018180;28;20047;-78
2024/01/06 03:16:21;;;;;;;6.20;4.03;;;;;;;6.81;77.86;95568.22;5010759;28;20054;-79
2024/01/06 03:18:48;;;;;;;8.65;4.05;;;;;;;6.78;77.69;95571.19;4997416;28;20106;-78
2024/01/06 03:21:20;;;;;;;7.60;3.83;;;;;;;6.76;77.61;95573.16;4996145;28;20050;-78
2024/01/06 03:23:49;;;;;;;5.57;3.60;;;;;;;6.75;77.06;95581.91;4995618;28;20403;-78
2024/01/06 03:26:18;;;;;;;4.63;3.55;;;;;;;6.73;77.54;95586.47;4995572;28;20085;-78
2024/01/06 03:28:45;;;;;;;6.82;3.92;;;;;;;6.71;77.47;95575.47;4995275;28;20104;-78
2024/01/06 03:31:14;;;;;;;6.70;3.70;;;;;;;6.71;77.21;95583.25;4995063;28;20046;-78
2024/01/06 03:33:42;;;;;;;5.00;3.25;;;;;;;6.71;77.16;95581.50;4994554;28;20541;-79
2024/01/06 03:36:10;;;;;;;5.68;3.17;;;;;;;6.69;77.76;95578.28;4994946;28;20050;-78
2024/01/06 03:38:38;;;;;;;5.35;3.33;;;;;;;6.69;77.06;95583.47;4994888;28;20430;-78
2024/01/06 03:41:05;;;;;;;4.60;3.60;;;;;;;6.69;76.88;95587.81;4994833;28;20050;-78
2024/01/06 03:43:33;;;;;;;7.05;3.50;;;;;;;6.67;77.35;95584.59;4994773;28;20109;-78
2024/01/06 03:46:00;;;;;;;7.72;4.15;;;;;;;6.67;77.41;95592.38;5004094;28;20042;-77
2024/01/06 03:48:29;;;;;;;7.07;3.97;;;;;;;6.66;77.75;95591.59;5018813;28;20030;-77
2024/01/06 03:50:57;;;;;;;7.00;3.80;;;;;;;6.68;78.01;95583.63;5011091;28;20049;-78
2024/01/06 03:53:25;;;;;;;7.38;3.80;;;;;;;6.66;77.76;95577.81;4995889;28;20054;-78
2024/01/06 03:55:53;;;;;;;5.65;3.75;;;;;;;6.65;77.78;95573.63;4995479;28;20061;-78
2024/01/06 03:58:21;;;;;;;7.40;4.97;;;;;;;6.65;77.87;95576.22;4994858;28;20078;-78
2024/01/06 04:00:49;;;;;;;8.98;4.35;;;;;;;6.63;77.68;95578.22;4994177;28;20082;-78
2024/01/06 04:03:16;;;;;;;6.95;4.00;;;;;;;6.62;78.33;95571.41;4994275;28;20055;-78
2024/01/06 04:05:45;;;;;;;7.45;3.97;;;;;;;6.65;78.13;95576.22;4994513;28;20046;-78
2024/01/06 04:08:13;;;;;;;9.55;4.50;;;;;;;6.64;78.90;95575.41;4993309;28;20532;-78
2024/01/06 04:10:41;;;;;;;6.72;3.90;;;;;;;6.63;78.66;95583.38;4994282;28;20056;-78
2024/01/06 04:13:09;;;;;;;4.68;3.55;;;;;;;6.60;77.12;95584.53;4993911;28;20054;-78
2024/01/06 04:15:36;;;;;;;5.72;3.78;;;;;;;6.58;76.97;95587.31;4993916;28;20137;-78
2024/01/06 04:18:05;;;;;;;5.30;3.97;;;;;;;6.59;77.55;95588.91;4994113;28;20578;-78
2024/01/06 04:20:33;;;;;;;9.60;4.97;;;;;;;6.63;78.80;95583.38;4994335;28;20065;-78
2024/01/06 04:23:02;;;;;;;9.48;4.68;;;;;;;6.63;78.28;95584.19;4993798;28;20141;-78
2024/01/06 04:25:30;;;;;;;14.20;5.97;;;;;;;6.63;78.81;95585.97;4993695;28;20512;-78
2024/01/06 04:27:57;;;;;;;10.20;5.22;;;;;;;6.61;78.89;95583.56;4993716;28;20137;-78
2024/01/06 04:30:25;;;;;;;7.13;4.50;;;;;;;6.58;78.63;95586.50;4993844;28;20054;-79
2024/01/06 04:32:53;;;;;;;6.55;4.60;;;;;;;6.55;79.61;95587.66;4993863;28;20065;-78
2024/01/06 04:35:21;;;;;;;10.35;4.35;;;;;;;6.54;79.02;95593.84;4993792;28;20085;-78
2024/01/06 04:37:49;;;;;;;7.28;4.22;;;;;;;6.55;79.40;95595.44;4993543;28;20050;-78
2024/01/06 04:40:18;;;;;;;6.90;4.43;;;;;;;6.58;79.59;95597.69;4993453;28;20129;-78
2024/01/06 04:42:45;;;;;;;7.05;4.63;;;;;;;6.59;80.06;95594.09;4993477;28;20136;-78
2024/01/06 04:45:13;;;;;;;7.25;4.70;;;;;;;6.60;79.52;95595.72;4995595;28;20060;-79
2024/01/06 04:47:41;;;;;;;7.32;4.20;;;;;;;6.60;78.74;95598.31;4994099;28;20046;-78
2024/01/06 04:50:09;;;;;;;6.88;4.50;;;;;;;6.58;78.74;95599.44;4993596;28;20054;-78
2024/01/06 04:52:37;;;;;;;6.45;4.60;;;;;;;6.61;79.88;95606.88;4993009;28;20046;-78
2024/01/06 04:55:05;;;;;;;6.68;4.45;;;;;;;6.62;80.10;95610.28;4993046;28;20052;-77
2024/01/06 04:57:34;;;;;;;5.75;4.75;;;;;;;6.57;79.26;95611.59;4993346;28;20058;-78
2024/01/06 05:00:02;;;;;;;8.40;4.45;;;;;;;6.54;79.25;95606.00;5100728;23;20086;-81
2024/01/06 05:02:30;;;;;;;8.20;4.30;;;;;;;6.53;78.72;95605.19;5007326;28;20069;-81
2024/01/06 05:09:15;;;;;;;7.50;4.20;;;;;;;6.49;78.73;95609.09;5002729;28;20046;-81
2024/01/06 05:34:36;;;;;;;6.57;3.85;;;;;;;6.40;79.14;95630.91;4924834;29;20051;-82
2024/01/06 08:09:57;;;;;;;4.45;2.88;;;;;;;6.03;75.71;95769.00;5215357;23;20054;-80
2024/01/06 08:12:25;;;;;;;;;;;;;;;6.08;75.42;95770.13;5013748;28;20078;-79
2024/01/06 08:14:56;;;;;;;7.82;2.88;;;;;;;6.06;75.97;95768.69;5011469;28;19928;-80
2024/01/06 08:17:29;;;;;;;5.93;2.70;;;;;;;6.12;78.33;95767.97;5012488;28;20054;-79
2024/01/06 08:20:01;;;;;;;5.38;2.75;;;;;;;6.11;75.94;95767.16;5015081;28;20077;-83
2024/01/06 08:22:30;;;;;;;5.22;3.40;;;;;;;6.04;75.90;95761.09;5011536;28;20058;-83
2024/01/06 08:25:02;;;;;;;5.32;3.10;;;;;;;6.03;76.32;95769.81;5006519;28;20134;-83
2024/01/06 08:27:31;;;;;;;7.88;3.63;;;;;;;6.08;77.68;95777.06;5007381;28;20050;-83
2024/01/06 08:30:00;;;;;;;7.03;3.33;;;;;;;6.12;77.99;95773.13;5015204;28;20030;-82
2024/01/06 08:32:31;;;;;;;5.70;3.50;;;;;;;6.14;78.34;95769.41;5007533;28;20061;-83
2024/01/06 08:35:00;;;;;;;7.72;4.00;;;;;;;6.14;76.47;95777.19;5007874;28;20054;-82
2024/01/06 08:37:31;;;;;;;4.88;3.42;;;;;;;6.12;75.02;95775.72;5001096;28;20049;-82
2024/01/06 08:40:04;;;;;;;8.13;2.72;;;;;;;6.09;74.44;95784.66;5004034;28;20074;-82
2024/01/06 08:42:33;;;;;;;6.32;3.35;;;;;;;6.10;75.88;95786.28;5001297;28;20110;-82
2024/01/06 08:45:00;;;;;;;4.68;3.05;;;;;;;6.15;77.44;95791.72;5000844;28;20042;-82
2024/01/06 08:47:28;;;;;;;5.30;3.83;;;;;;;6.19;77.99;95790.41;5004260;28;20073;-83
2024/01/06 08:49:56;;;;;;;6.90;3.55;;;;;;;6.20;76.98;95793.81;5007987;28;20114;-82
2024/01/06 08:52:25;;;;;;;8.32;3.55;;;;;;;6.21;75.70;95792.00;5009954;28;20057;-83
2024/01/06 08:54:54;;;;;;;6.72;3.45;;;;;;;6.19;76.49;95790.41;4990773;28;20137;-82
2024/01/06 08:57:23;;;;;;;8.10;4.18;;;;;;;6.20;78.01;95788.63;4978847;28;20058;-82
2024/01/06 08:59:51;;;;;;;8.13;3.35;;;;;;;6.24;77.34;95794.28;4981491;28;20038;-82
2024/01/06 09:02:19;;;;;;;7.45;4.00;;;;;;;6.22;75.61;95793.63;4997376;28;20070;-81
2024/01/06 09:04:47;;;;;;;6.15;3.67;;;;;;;6.17;74.25;95802.72;5007514;28;20046;-82
2024/01/06 09:07:17;;;;;;;7.88;3.50;;;;;;;6.13;74.40;95801.47;5012120;28;20074;-82
2024/01/06 09:09:44;;;;;;;5.18;3.25;;;;;;;6.13;74.96;95806.63;5006394;28;20050;-82
2024/01/06 09:12:12;;;;;;;5.00;3.15;;;;;;;6.12;75.09;95815.41;4993854;28;20051;-82
2024/01/06 09:14:41;;;;;;;6.57;3.42;;;;;;;6.11;74.43;95803.41;4985848;28;20054;-82
2024/01/06 09:17:09;;;;;;;4.70;2.95;;;;;;;6.16;74.97;95810.66;4989367;28;20052;-82
2024/01/06 09:19:36;;;;;;;8.95;4.35;;;;;;;6.16;73.72;95811.47;4988619;28;20054;-82
2024/01/06 09:22:04;;;;;;;3.70;3.25;;;;;;;6.21;76.04;95812.72;4988510;28;20042;-82
2024/01/06 09:24:33;;;;;;;6.03;3.40;;;;;;;6.27;76.78;95817.22;4981019;28;20482;-82
2024/01/06 09:27:03;;;;;;;5.03;2.85;;;;;;;6.32;76.08;95809.72;4985444;28;20049;-83
2024/01/06 09:29:32;;;;;;;3.33;2.88;;;;;;;6.35;76.69;95815.38;4980112;28;20141;-82
2024/01/06 09:32:02;;;;;;;4.90;3.20;;;;;;;6.39;76.01;95823.59;4974791;28;20498;-83
2024/01/06 09:34:29;;;;;;;5.75;2.85;;;;;;;6.33;74.72;95826.88;4976005;28;20494;-82
2024/01/06 09:36:57;;;;;;;9.95;2.97;;;;;;;6.30;76.11;95828.03;4975070;28;20062;-82
2024/01/06 09:39:25;;;;;;;6.88;2.95;;;;;;;6.33;76.63;95826.88;4974213;28;20109;-81
2024/01/06 09:41:55;;;;;;;6.28;2.40;;;;;;;6.36;76.84;95829.13;4991085;28;20082;-82
2024/01/06 09:44:23;;;;;;;4.50;2.53;;;;;;;6.37;75.84;95835.94;4994840;28;20050;-81
2024/01/06 09:46:51;;;;;;;5.55;2.80;;;;;;;6.35;75.84;95835.28;5001407;28;20066;-82
2024/01/06 09:49:24;;;;;;;5.38;2.80;;;;;;;6.31;73.56;95834.03;5004332;28;20097;-81
2024/01/06 09:51:54;;;;;;;5.43;3.13;;;;;;;6.28;73.90;95834.38;4993260;28;20125;-81
2024/01/06 09:54:25;;;;;;;3.40;3.08;;;;;;;6.28;75.08;95844.75;4989574;28;20051;-82
2024/01/06 09:56:55;;;;;;;5.25;2.70;;;;;;;6.31;76.13;95834.03;4977452;28;20499;-82
2024/01/06 09:59:24;;;;;;;5.97;3.35;;;;;;;6.34;76.05;95838.84;4983293;28;20050;-82
2024/01/06 10:01:52;;;;;;;4.97;2.50;;;;;;;6.30;75.65;95843.59;4974408;28;20097;-82
2024/01/06 10:04:22;;;;;;;3.15;2.22;;;;;;;6.34;76.49;95841.44;4974607;28;20474;-82
2024/01/06 10:06:51;;;;;;;5.80;2.70;;;;;;;6.36;75.31;95847.25;4977949;28;20421;-82
2024/01/06 10:09:27;;;;;;;4.43;2.60;;;;;;;6.34;73.63;95849.22;4978542;28;20045;-82
2024/01/06 10:11:56;;;;;;;3.97;2.28;;;;;;;6.34;74.93;95844.03;4986062;28;20054;-82
2024/01/06 10:14:24;;;;;;;3.13;2.50;;;;;;;6.36;74.87;95842.06;4982040;28;20050;-82
2024/01/06 10:16:53;;;;;;;4.80;2.20;;;;;;;6.35;75.29;95841.28;4992286;28;20077;-82
2024/01/06 10:19:24;;;;;;;3.63;2.05;;;;;;;6.37;74.74;95838.50;4997160;28;20050;-82
2024/01/06 10:21:52;;;;;;;5.25;3.25;;;;;;;6.36;74.25;95834.28;4997994;28;20574;-82
2024/01/06 10:24:21;;;;;;;4.30;2.10;;;;;;;6.31;73.25;95834.81;4998767;28;20046;-83
2024/01/06 10:26:49;;;;;;;2.65;2.20;;;;;;;6.32;74.22;95835.63;4998368;28;20135;-81
2024/01/06 10:29:18;;;;;;;3.00;2.40;;;;;;;6.31;74.02;95832.22;4999136;28;20136;-82
2024/01/06 10:31:49;;;;;;;2.72;1.85;;;;;;;6.34;74.63;95831.06;4998560;28;20074;-82
2024/01/06 10:34:26;;;;;;;3.83;1.90;;;;;;;6.35;75.16;95830.13;4986134;28;20086;-82
2024/01/06 10:36:57;;;;;;;3.00;2.13;;;;;;;6.39;75.19;95828.78;4979855;28;20106;-82
2024/01/06 10:39:25;;;;;;;2.67;1.67;;;;;;;6.42;74.41;95825.84;4978643;28;20062;-82
2024/01/06 10:41:53;;;;;;;5.15;2.55;;;;;;;6.43;74.18;95827.47;4978107;28;20050;-81
2024/01/06 10:44:22;;;;;;;3.80;2.47;;;;;;;6.40;73.90;95827.78;4979581;28;20074;-82
2024/01/06 10:46:52;;;;;;;4.25;3.15;;;;;;;6.35;73.66;95824.94;4981390;28;20055;-82
2024/01/06 10:49:21;;;;;;;3.15;2.78;;;;;;;6.35;73.56;95824.94;4979300;28;20054;-82
2024/01/06 10:51:52;;;;;;;4.07;2.90;;;;;;;6.33;73.46;95825.09;4979397;28;20051;-82
2024/01/06 10:54:22;;;;;;;4.50;3.00;;;;;;;6.36;74.07;95826.53;4978637;28;20043;-82
2024/01/06 10:56:53;;;;;;;3.42;2.65;;;;;;;6.38;73.57;95821.97;4978148;28;20054;-82
2024/01/06 10:59:24;;;;;;;2.42;2.22;;;;;;;6.39;75.42;95827.00;4977073;28;20105;-82
2024/01/06 11:01:55;;;;;;;4.93;2.97;;;;;;;6.42;74.67;95820.66;4980184;28;20047;-82
2024/01/06 11:04:24;;;;;;;5.45;2.72;;;;;;;6.44;74.63;95818.69;4981911;28;20050;-82
2024/01/06 11:06:54;;;;;;;5.00;2.30;;;;;;;6.44;74.29;95813.50;4981627;28;20042;-82
2024/01/06 11:09:26;;;;;;;6.03;3.17;;;;;;;6.47;73.30;95818.38;4995007;28;20031;-83
2024/01/06 11:11:55;;;;;;;6.53;3.97;;;;;;;6.49;72.07;95813.78;5293935;23;20070;-82
2024/01/06 11:18:06;;;;;;;6.22;3.22;;;;;;;6.52;70.74;95812.66;5462214;23;20053;-84
2024/01/06 12:07:21;;;;;;;3.67;1.95;;;;;;;6.36;70.71;95798.88;5897854;23;20046;-80
2024/01/06 12:27:53;;;;;;;3.22;2.83;;;;;;;6.34;73.17;95779.28;5014884;28;20044;-82
2024/01/06 12:33:08;;;;;;;3.00;2.17;;;;;;;6.33;73.17;95780.25;4912820;23;20054;-80
2024/01/06 12:35:39;;;;;;;2.92;2.58;;;;;;;6.34;73.59;95785.28;5007232;28;20061;-83
2024/01/06 12:38:09;;;;;;;3.88;2.53;;;;;;;6.34;73.26;95793.03;4999826;28;20050;-81
2024/01/06 12:40:37;;;;;;;3.53;2.58;;;;;;;6.30;73.20;95791.78;4963357;28;20047;-80
2024/01/06 12:43:05;;;;;;;4.22;2.42;;;;;;;6.32;74.45;95789.81;4968693;28;20511;-80
2024/01/06 12:45:33;;;;;;;3.97;2.38;;;;;;;6.35;74.24;95780.91;4958740;28;20546;-81
2024/01/06 12:48:01;;;;;;;2.88;2.42;;;;;;;6.33;73.57;95780.25;4967430;28;20051;-81
2024/01/06 12:50:28;;;;;;;2.60;2.40;;;;;;;6.33;73.98;95788.03;4972207;28;20047;-81
2024/01/06 12:52:57;;;;;;;2.95;2.65;;;;;;;6.30;73.99;95796.16;4975223;28;20137;-81
2024/01/06 12:55:25;;;;;;;5.55;3.28;;;;;;;6.31;74.40;95782.22;4975088;28;20055;-81
2024/01/06 12:57:52;;;;;;;4.97;3.58;;;;;;;6.30;74.30;95788.41;4963880;28;20141;-81
2024/01/06 13:00:20;;;;;;;4.00;3.13;;;;;;;6.28;74.30;95787.75;4968057;28;20113;-79
2024/01/06 13:02:48;;;;;;;3.67;3.13;;;;;;;6.24;74.72;95796.84;4966205;28;20047;-82
2024/01/06 13:05:15;;;;;;;4.97;3.22;;;;;;;6.25;74.70;95790.69;4956785;29;20110;-81
2024/01/06 13:07:43;;;;;;;5.50;3.85;;;;;;;6.27;74.67;95791.31;4955560;29;20043;-80
2024/01/06 13:10:12;;;;;;;7.20;3.53;;;;;;;6.29;74.91;95797.13;4955240;28;20047;-80
2024/01/06 13:12:40;;;;;;;4.00;3.60;;;;;;;6.29;75.69;95794.53;4954749;28;20054;-81
2024/01/06 13:15:10;;;;;;;2.95;2.67;;;;;;;6.30;75.01;95798.75;4955738;28;20059;-81
2024/01/06 13:17:39;;;;;;;3.63;2.75;;;;;;;6.28;74.71;95798.13;4955426;28;20045;-80
2024/01/06 13:20:08;;;;;;;3.10;2.70;;;;;;;6.34;76.44;95797.41;4956466;28;20063;-81
2024/01/06 13:22:35;;;;;;;2.63;2.13;;;;;;;6.35;74.94;95793.84;4969165;28;20057;-81
2024/01/06 13:25:03;;;;;;;2.58;2.28;;;;;;;6.32;75.15;95792.41;4974567;28;20099;-80
2024/01/06 13:27:36;;;;;;;2.25;1.85;;;;;;;6.29;74.05;95802.31;4971902;28;20672;-82
2024/01/06 13:30:04;;;;;;;4.65;2.80;;;;;;;6.25;74.40;95801.03;4974075;28;20043;-82
2024/01/06 13:32:33;;;;;;;3.20;2.70;;;;;;;6.27;75.68;95806.84;4955138;28;20054;-81
2024/01/06 13:35:04;;;;;;;2.60;2.40;;;;;;;6.31;75.75;95811.50;4954028;29;20538;-78
2024/01/06 13:37:32;;;;;;;3.78;2.33;;;;;;;6.27;75.09;95812.84;4954357;28;20138;-80
2024/01/06 13:39:59;;;;;;;6.22;2.63;;;;;;;6.19;74.08;95811.13;4966703;28;20053;-81
2024/01/06 13:42:27;;;;;;;3.42;2.72;;;;;;;6.15;75.05;95812.44;4977511;28;20059;-81
2024/01/06 13:45:44;;;;;;;2.55;2.33;;;;;;;6.16;75.90;95816.63;4979027;28;20743;-82
2024/01/06 13:48:14;;;;;;;3.22;2.70;;;;;;;6.16;74.49;95813.25;4965382;29;20043;-82
2024/01/06 13:50:48;;;;;;;3.40;2.85;;;;;;;6.13;73.94;95819.59;4970860;28;20051;-82
2024/01/06 13:53:16;;;;;;;2.63;2.42;;;;;;;6.14;74.10;95821.22;4959676;28;20538;-81
2024/01/06 13:55:45;;;;;;;3.38;3.08;;;;;;;6.13;73.68;95811.81;4970223;28;20495;-81
2024/01/06 13:58:12;;;;;;;3.10;2.42;;;;;;;6.11;73.59;95821.53;4976273;28;20046;-82
2024/01/06 14:00:40;;;;;;;3.17;2.72;;;;;;;6.11;74.79;95826.72;4975769;28;20074;-81
2024/01/06 14:03:08;;;;;;;3.63;3.25;;;;;;;6.14;75.23;95823.81;4977104;28;20055;-81
2024/01/06 14:05:37;;;;;;;2.47;2.28;;;;;;;6.17;75.05;95817.47;4965490;28;20467;-81
2024/01/06 14:08:06;;;;;;;4.38;2.72;;;;;;;6.18;74.60;95819.84;4958021;29;20083;-82
2024/01/06 14:10:33;;;;;;;3.25;2.42;;;;;;;6.18;74.82;95817.28;4957958;28;20062;-82
2024/01/06 14:13:01;;;;;;;2.67;2.47;;;;;;;6.16;74.44;95827.00;4969136;28;20074;-81
2024/01/06 14:15:30;;;;;;;2.67;2.45;;;;;;;6.14;75.16;95828.16;4975936;28;20054;-81
2024/01/06 14:17:59;;;;;;;2.13;1.92;;;;;;;6.14;75.17;95828.97;4974551;28;20043;-81
2024/01/06 14:20:27;;;;;;;2.28;2.05;;;;;;;6.16;75.31;95837.34;4981352;28;20032;-81
2024/01/06 14:22:57;;;;;;;3.42;2.50;;;;;;;6.19;75.26;95844.00;4998797;28;20070;-83
2024/01/06 14:25:25;;;;;;;3.05;2.75;;;;;;;6.18;74.52;95835.41;4998315;28;20039;-83
2024/01/06 14:27:53;;;;;;;4.32;3.08;;;;;;;6.16;74.99;95834.75;4987003;28;20470;-81
2024/01/06 14:30:21;;;;;;;3.30;3.00;;;;;;;6.16;75.13;95831.38;4976767;28;20051;-80
2024/01/06 14:32:48;;;;;;;3.78;2.85;;;;;;;6.14;75.09;95834.16;4958702;28;20054;-81
2024/01/06 14:35:16;;;;;;;3.03;2.72;;;;;;;6.15;75.37;95825.41;4958008;28;20503;-81
2024/01/06 14:37:44;;;;;;;3.55;2.72;;;;;;;6.15;74.92;95835.75;4958172;28;20063;-80
2024/01/06 14:40:16;;;;;;;3.20;2.90;;;;;;;6.12;75.71;95836.13;4961172;28;20427;-83
2024/01/06 14:42:44;;;;;;;3.35;2.80;;;;;;;6.14;75.69;95839.34;4962620;28;20059;-81
2024/01/06 14:45:12;;;;;;;5.82;3.08;;;;;;;6.13;75.04;95848.06;4957558;28;20087;-80
2024/01/06 14:47:40;;;;;;;3.63;3.10;;;;;;;6.14;75.70;95843.69;4960194;29;20138;-81
2024/01/06 14:52:50;;;;;;;3.00;2.70;;;;;;;6.13;74.76;95853.25;5091099;23;20151;-82
2024/01/06 14:55:19;;;;;;;4.00;3.60;;;;;;;6.12;76.58;95859.41;4997606;28;20073;-82
2024/01/06 14:57:47;;;;;;;3.63;3.00;;;;;;;6.12;75.21;95861.19;5481218;23;20042;-80
2024/01/06 15:00:15;;;;;;;3.60;2.80;;;;;;;6.09;75.78;95851.19;4994873;28;20186;-79
2024/01/06 15:02:45;;;;;;;3.72;3.20;;;;;;;6.13;77.28;95858.44;4987562;28;20056;-81
2024/01/06 15:05:14;;;;;;;3.63;3.28;;;;;;;6.16;77.27;95852.88;4995779;28;20046;-81
2024/01/06 15:07:42;;;;;;;3.03;2.80;;;;;;;6.17;77.26;95854.53;4995299;28;20046;-80
2024/01/06 15:10:12;;;;;;;5.97;3.70;;;;;;;6.19;76.76;95854.34;4995813;28;20054;-81
2024/01/06 15:12:41;;;;;;;4.32;3.45;;;;;;;6.18;77.38;95858.69;4976640;28;20043;-80
2024/01/06 15:15:09;;;;;;;4.53;3.80;;;;;;;6.18;76.80;95865.69;4976376;28;20054;-80
2024/01/06 15:17:37;;;;;;;10.93;6.40;;;;;;;6.13;76.37;95866.19;4976842;28;20526;-79
2024/01/06 15:20:06;;;;;;;6.75;4.95;;;;;;;6.14;76.84;95865.22;4975617;28;20051;-80
2024/01/06 15:22:33;;;;;;;10.93;6.03;;;;;;;6.17;76.93;95864.88;4989541;28;20125;-80
2024/01/06 15:25:07;;;;;;;7.10;5.13;;;;;;;6.17;76.92;95861.50;4995119;28;20050;-80
2024/01/06 15:27:35;;;;;;;6.07;4.53;;;;;;;6.17;77.18;95874.44;4993511;28;20047;-80
2024/01/06 15:30:07;;;;;;;5.90;4.03;;;;;;;6.16;76.85;95878.78;4975896;28;20507;-80
2024/01/06 15:32:35;;;;;;;5.95;4.93;;;;;;;6.15;77.64;95879.78;4996036;28;20081;-81
2024/01/06 15:35:04;;;;;;;6.82;4.85;;;;;;;6.13;78.16;95880.94;4996261;28;20054;-79
2024/01/06 15:37:31;;;;;;;9.10;5.47;;;;;;;6.10;78.23;95884.69;4994816;28;20106;-79
2024/01/06 15:39:59;;;;;;;9.15;6.00;;;;;;;6.11;78.49;95883.69;5002070;28;20074;-79
2024/01/06 15:42:27;;;;;;;9.70;5.50;;;;;;;6.14;79.76;95883.34;4998116;28;20042;-79
2024/01/06 15:44:54;;;;;;;7.38;5.53;;;;;;;6.15;79.29;95879.78;4996874;28;20066;-78
2024/01/06 15:47:23;;;;;;;7.18;5.55;;;;;;;6.14;79.67;95883.34;5005913;28;20517;-79
2024/01/06 15:49:52;;;;;;;6.35;5.20;;;;;;;6.10;78.13;95884.69;4994720;28;20046;-79
2024/01/06 15:52:21;;;;;;;8.60;5.65;;;;;;;6.05;78.03;95886.16;4994598;28;20251;-79
2024/01/06 15:54:49;;;;;;;8.35;5.28;;;;;;;6.03;78.34;95888.91;4994897;28;20076;-79
2024/01/06 15:57:17;;;;;;;12.95;7.47;;;;;;;6.03;78.78;95899.25;4976316;28;20479;-79
2024/01/06 15:59:45;;;;;;;11.70;7.85;;;;;;;6.04;77.86;95894.91;4982436;28;20061;-80
2024/01/06 16:02:13;;;;;;;11.93;7.93;;;;;;;6.03;78.47;95898.47;5001985;28;20051;-79